sensor_id;sensor_type;location;lat;lon;timestamp;P1;durP1;ratioP1;P2;durP2;ratioP2
4577;SDS011;2301;47.354;8.528;2023-01-20T00:00:17;5.93;;;3.88;;
4577;SDS011;2301;47.354;8.528;2023-01-20T00:02:47;6.70;;;4.03;;
4577;SDS011;2301;47.354;8.528;2023-01-20T00:05:14;5.72;;;4.20;;
4577;SDS011;2301;47.354;8.528;2023-01-20T00:07:43;7.90;;;4.05;;
4577;SDS011;2301;47.354;8.528;2023-01-20T00:10:15;6.25;;;4.18;;
4577;SDS011;2301;47.354;8.528;2023-01-20T00:12:44;6.97;;;4.50;;
4577;SDS011;2301;47.354;8.528;2023-01-20T00:15:15;6.25;;;4.10;;
4577;SDS011;2301;47.354;8.528;2023-01-20T00:17:42;8.68;;;4.20;;
4577;SDS011;2301;47.354;8.528;2023-01-20T00:20:11;6.88;;;3.40;;
4577;SDS011;2301;47.354;8.528;2023-01-20T00:22:40;8.77;;;4.75;;
4577;SDS011;2301;47.354;8.528;2023-01-20T00:25:08;10.20;;;5.28;;
4577;SDS011;2301;47.354;8.528;2023-01-20T00:27:37;10.50;;;6.00;;
4577;SDS011;2301;47.354;8.528;2023-01-20T00:30:05;13.27;;;5.78;;
4577;SDS011;2301;47.354;8.528;2023-01-20T00:32:35;7.90;;;5.28;;
4577;SDS011;2301;47.354;8.528;2023-01-20T00:35:03;7.82;;;5.25;;
4577;SDS011;2301;47.354;8.528;2023-01-20T00:37:32;11.15;;;6.10;;
4577;SDS011;2301;47.354;8.528;2023-01-20T00:40:00;6.95;;;4.50;;
4577;SDS011;2301;47.354;8.528;2023-01-20T00:42:27;7.13;;;4.32;;
4577;SDS011;2301;47.354;8.528;2023-01-20T00:44:58;7.38;;;4.20;;
4577;SDS011;2301;47.354;8.528;2023-01-20T00:47:26;4.07;;;3.45;;
4577;SDS011;2301;47.354;8.528;2023-01-20T00:49:53;6.03;;;3.78;;
4577;SDS011;2301;47.354;8.528;2023-01-20T00:52:21;5.35;;;3.88;;
4577;SDS011;2301;47.354;8.528;2023-01-20T00:54:48;5.00;;;3.72;;
4577;SDS011;2301;47.354;8.528;2023-01-20T00:57:15;7.53;;;4.65;;
4577;SDS011;2301;47.354;8.528;2023-01-20T00:59:44;5.65;;;3.50;;
4577;SDS011;2301;47.354;8.528;2023-01-20T07:37:40;5.38;;;4.35;;
4577;SDS011;2301;47.354;8.528;2023-01-20T07:40:08;6.97;;;4.50;;
4577;SDS011;2301;47.354;8.528;2023-01-20T07:42:36;5.25;;;3.78;;
4577;SDS011;2301;47.354;8.528;2023-01-20T07:45:03;4.47;;;3.33;;
4577;SDS011;2301;47.354;8.528;2023-01-20T07:47:31;3.95;;;3.25;;
4577;SDS011;2301;47.354;8.528;2023-01-20T07:49:58;4.50;;;3.00;;
4577;SDS011;2301;47.354;8.528;2023-01-20T07:52:25;4.10;;;3.47;;
4577;SDS011;2301;47.354;8.528;2023-01-20T07:54:54;5.75;;;3.80;;
4577;SDS011;2301;47.354;8.528;2023-01-20T07:57:21;6.35;;;3.30;;
4577;SDS011;2301;47.354;8.528;2023-01-20T07:59:48;4.30;;;3.20;;
4577;SDS011;2301;47.354;8.528;2023-01-20T08:02:15;11.57;;;3.35;;
4577;SDS011;2301;47.354;8.528;2023-01-20T08:04:44;4.28;;;3.13;;
4577;SDS011;2301;47.354;8.528;2023-01-20T08:07:11;7.07;;;3.05;;
4577;SDS011;2301;47.354;8.528;2023-01-20T08:09:38;5.63;;;3.53;;
4577;SDS011;2301;47.354;8.528;2023-01-20T08:12:09;4.18;;;2.85;;
4577;SDS011;2301;47.354;8.528;2023-01-20T08:14:39;4.90;;;3.30;;
4577;SDS011;2301;47.354;8.528;2023-01-20T08:17:06;4.15;;;3.50;;
4577;SDS011;2301;47.354;8.528;2023-01-20T08:19:34;4.28;;;3.40;;
4577;SDS011;2301;47.354;8.528;2023-01-20T08:22:01;5.38;;;3.60;;
4577;SDS011;2301;47.354;8.528;2023-01-20T08:24:29;18.50;;;3.78;;
4577;SDS011;2301;47.354;8.528;2023-01-20T08:26:56;4.28;;;3.58;;
4577;SDS011;2301;47.354;8.528;2023-01-20T08:29:27;4.25;;;3.50;;
4577;SDS011;2301;47.354;8.528;2023-01-20T08:31:57;6.10;;;3.67;;
4577;SDS011;2301;47.354;8.528;2023-01-20T08:34:25;4.38;;;3.50;;
4577;SDS011;2301;47.354;8.528;2023-01-20T08:36:55;8.40;;;3.25;;
4577;SDS011;2301;47.354;8.528;2023-01-20T08:39:23;6.20;;;3.70;;
4577;SDS011;2301;47.354;8.528;2023-01-20T08:41:50;4.13;;;3.20;;
4577;SDS011;2301;47.354;8.528;2023-01-20T08:44:17;4.20;;;3.80;;
4577;SDS011;2301;47.354;8.528;2023-01-20T08:46:47;5.43;;;3.80;;
4577;SDS011;2301;47.354;8.528;2023-01-20T08:49:19;5.32;;;3.80;;
4577;SDS011;2301;47.354;8.528;2023-01-20T08:51:49;4.50;;;3.95;;
4577;SDS011;2301;47.354;8.528;2023-01-20T08:54:17;6.43;;;4.35;;
4577;SDS011;2301;47.354;8.528;2023-01-20T08:56:48;4.80;;;3.67;;
4577;SDS011;2301;47.354;8.528;2023-01-20T08:59:19;5.18;;;3.75;;
4577;SDS011;2301;47.354;8.528;2023-01-20T09:01:49;5.38;;;4.45;;
4577;SDS011;2301;47.354;8.528;2023-01-20T09:04:24;5.03;;;3.72;;
4577;SDS011;2301;47.354;8.528;2023-01-20T09:06:53;5.20;;;3.80;;
4577;SDS011;2301;47.354;8.528;2023-01-20T09:09:21;7.65;;;3.90;;
4577;SDS011;2301;47.354;8.528;2023-01-20T09:11:49;15.77;;;4.20;;
4577;SDS011;2301;47.354;8.528;2023-01-20T09:14:20;4.72;;;4.20;;
4577;SDS011;2301;47.354;8.528;2023-01-20T09:16:58;6.13;;;4.07;;
4577;SDS011;2301;47.354;8.528;2023-01-20T09:19:28;8.75;;;3.88;;
4577;SDS011;2301;47.354;8.528;2023-01-20T09:22:05;6.80;;;3.70;;
4577;SDS011;2301;47.354;8.528;2023-01-20T09:24:37;5.78;;;4.10;;
4577;SDS011;2301;47.354;8.528;2023-01-20T09:27:20;5.05;;;3.90;;
4577;SDS011;2301;47.354;8.528;2023-01-20T09:29:49;6.43;;;3.78;;
4577;SDS011;2301;47.354;8.528;2023-01-20T09:32:18;6.22;;;4.18;;
4577;SDS011;2301;47.354;8.528;2023-01-20T09:34:51;6.55;;;4.13;;
4577;SDS011;2301;47.354;8.528;2023-01-20T09:37:21;3.60;;;3.30;;
4577;SDS011;2301;47.354;8.528;2023-01-20T09:40:10;7.25;;;4.03;;
4577;SDS011;2301;47.354;8.528;2023-01-20T09:43:13;5.05;;;3.72;;
4577;SDS011;2301;47.354;8.528;2023-01-20T09:46:09;5.18;;;3.28;;
4577;SDS011;2301;47.354;8.528;2023-01-20T09:55:16;9.88;;;4.07;;
4577;SDS011;2301;47.354;8.528;2023-01-20T09:58:04;9.45;;;3.88;;
4577;SDS011;2301;47.354;8.528;2023-01-20T10:01:17;5.55;;;4.20;;
4577;SDS011;2301;47.354;8.528;2023-01-20T10:04:18;10.43;;;4.10;;
4577;SDS011;2301;47.354;8.528;2023-01-20T10:07:00;6.88;;;3.70;;
4577;SDS011;2301;47.354;8.528;2023-01-20T10:47:36;7.90;;;4.30;;
4577;SDS011;2301;47.354;8.528;2023-01-20T10:50:13;6.53;;;4.53;;
4577;SDS011;2301;47.354;8.528;2023-01-20T11:03:35;9.00;;;3.72;;
4577;SDS011;2301;47.354;8.528;2023-01-20T11:06:07;6.85;;;4.60;;
4577;SDS011;2301;47.354;8.528;2023-01-20T11:08:42;6.07;;;4.05;;
4577;SDS011;2301;47.354;8.528;2023-01-20T11:11:09;6.00;;;4.60;;
4577;SDS011;2301;47.354;8.528;2023-01-20T11:13:40;8.70;;;4.20;;
4577;SDS011;2301;47.354;8.528;2023-01-20T11:16:10;5.38;;;4.10;;
4577;SDS011;2301;47.354;8.528;2023-01-20T11:18:42;8.95;;;4.50;;
4577;SDS011;2301;47.354;8.528;2023-01-20T11:21:24;7.00;;;4.05;;
4577;SDS011;2301;47.354;8.528;2023-01-20T11:23:53;4.40;;;3.90;;
4577;SDS011;2301;47.354;8.528;2023-01-20T11:26:24;9.95;;;4.82;;
4577;SDS011;2301;47.354;8.528;2023-01-20T11:28:53;7.60;;;4.60;;
4577;SDS011;2301;47.354;8.528;2023-01-20T11:31:21;6.28;;;4.65;;
4577;SDS011;2301;47.354;8.528;2023-01-20T11:34:18;14.07;;;4.60;;
4577;SDS011;2301;47.354;8.528;2023-01-20T11:36:47;5.72;;;4.30;;
4577;SDS011;2301;47.354;8.528;2023-01-20T11:39:25;7.15;;;4.50;;
4577;SDS011;2301;47.354;8.528;2023-01-20T11:42:08;8.43;;;4.65;;
4577;SDS011;2301;47.354;8.528;2023-01-20T11:44:42;8.48;;;4.82;;
4577;SDS011;2301;47.354;8.528;2023-01-20T11:47:20;6.07;;;4.65;;
4577;SDS011;2301;47.354;8.528;2023-01-20T11:50:02;5.90;;;5.07;;
4577;SDS011;2301;47.354;8.528;2023-01-20T11:52:45;7.95;;;5.18;;
4577;SDS011;2301;47.354;8.528;2023-01-20T11:55:13;6.65;;;4.70;;
4577;SDS011;2301;47.354;8.528;2023-01-20T11:57:42;8.60;;;5.93;;
4577;SDS011;2301;47.354;8.528;2023-01-20T12:02:59;5.53;;;4.00;;
4577;SDS011;2301;47.354;8.528;2023-01-20T12:05:35;6.00;;;4.70;;
4577;SDS011;2301;47.354;8.528;2023-01-20T12:08:08;7.43;;;5.40;;
4577;SDS011;2301;47.354;8.528;2023-01-20T12:10:40;10.60;;;5.75;;
4577;SDS011;2301;47.354;8.528;2023-01-20T12:13:11;6.95;;;5.00;;
4577;SDS011;2301;47.354;8.528;2023-01-20T12:15:44;8.18;;;5.80;;
4577;SDS011;2301;47.354;8.528;2023-01-20T12:18:22;9.35;;;5.95;;
4577;SDS011;2301;47.354;8.528;2023-01-20T12:21:00;8.70;;;6.25;;
4577;SDS011;2301;47.354;8.528;2023-01-20T12:23:36;7.85;;;5.65;;
4577;SDS011;2301;47.354;8.528;2023-01-20T12:26:13;6.82;;;5.38;;
4577;SDS011;2301;47.354;8.528;2023-01-20T12:28:42;11.00;;;5.60;;
4577;SDS011;2301;47.354;8.528;2023-01-20T12:31:21;8.88;;;5.70;;
4577;SDS011;2301;47.354;8.528;2023-01-20T12:33:49;9.88;;;5.53;;
4577;SDS011;2301;47.354;8.528;2023-01-20T12:36:29;8.15;;;5.50;;
4577;SDS011;2301;47.354;8.528;2023-01-20T12:39:10;5.70;;;4.55;;
4577;SDS011;2301;47.354;8.528;2023-01-20T12:42:00;7.45;;;5.10;;
4577;SDS011;2301;47.354;8.528;2023-01-20T12:44:56;14.77;;;5.25;;
4577;SDS011;2301;47.354;8.528;2023-01-20T12:47:29;9.20;;;5.88;;
4577;SDS011;2301;47.354;8.528;2023-01-20T12:50:14;9.07;;;5.80;;
4577;SDS011;2301;47.354;8.528;2023-01-20T12:52:59;7.35;;;4.95;;
4577;SDS011;2301;47.354;8.528;2023-01-20T12:55:38;12.32;;;5.57;;
4577;SDS011;2301;47.354;8.528;2023-01-20T12:58:16;6.68;;;4.95;;
4577;SDS011;2301;47.354;8.528;2023-01-20T13:00:54;8.65;;;4.90;;
4577;SDS011;2301;47.354;8.528;2023-01-20T13:03:42;8.50;;;5.50;;
4577;SDS011;2301;47.354;8.528;2023-01-20T13:06:32;10.85;;;6.13;;
4577;SDS011;2301;47.354;8.528;2023-01-20T13:11:59;5.78;;;4.80;;
4577;SDS011;2301;47.354;8.528;2023-01-20T13:14:36;8.18;;;5.15;;
4577;SDS011;2301;47.354;8.528;2023-01-20T13:17:10;11.05;;;6.15;;
4577;SDS011;2301;47.354;8.528;2023-01-20T13:19:42;8.60;;;5.10;;
4577;SDS011;2301;47.354;8.528;2023-01-20T13:22:14;6.35;;;5.20;;
4577;SDS011;2301;47.354;8.528;2023-01-20T13:24:46;8.40;;;5.57;;
4577;SDS011;2301;47.354;8.528;2023-01-20T13:27:16;7.88;;;5.32;;
4577;SDS011;2301;47.354;8.528;2023-01-20T13:29:53;6.60;;;5.10;;
4577;SDS011;2301;47.354;8.528;2023-01-20T13:32:31;6.75;;;5.72;;
4577;SDS011;2301;47.354;8.528;2023-01-20T13:35:00;7.82;;;5.68;;
4577;SDS011;2301;47.354;8.528;2023-01-20T13:37:31;14.68;;;6.38;;
4577;SDS011;2301;47.354;8.528;2023-01-20T13:40:03;9.13;;;6.10;;
4577;SDS011;2301;47.354;8.528;2023-01-20T13:42:46;7.30;;;5.60;;
4577;SDS011;2301;47.354;8.528;2023-01-20T13:45:16;6.82;;;5.30;;
4577;SDS011;2301;47.354;8.528;2023-01-20T13:50:47;8.77;;;6.25;;
4577;SDS011;2301;47.354;8.528;2023-01-20T13:53:28;10.23;;;5.82;;
4577;SDS011;2301;47.354;8.528;2023-01-20T13:56:08;11.23;;;6.90;;
4577;SDS011;2301;47.354;8.528;2023-01-20T13:58:49;7.38;;;5.63;;
4577;SDS011;2301;47.354;8.528;2023-01-20T14:01:16;8.45;;;5.68;;
4577;SDS011;2301;47.354;8.528;2023-01-20T14:03:43;21.45;;;6.15;;
4577;SDS011;2301;47.354;8.528;2023-01-20T14:06:27;9.40;;;6.32;;
4577;SDS011;2301;47.354;8.528;2023-01-20T14:08:54;7.10;;;5.82;;
4577;SDS011;2301;47.354;8.528;2023-01-20T14:11:23;7.25;;;5.95;;
4577;SDS011;2301;47.354;8.528;2023-01-20T14:13:51;9.02;;;6.43;;
4577;SDS011;2301;47.354;8.528;2023-01-20T14:16:20;10.40;;;6.88;;
4577;SDS011;2301;47.354;8.528;2023-01-20T14:18:50;10.52;;;6.18;;
4577;SDS011;2301;47.354;8.528;2023-01-20T14:21:18;9.43;;;6.28;;
4577;SDS011;2301;47.354;8.528;2023-01-20T14:23:48;7.78;;;6.18;;
4577;SDS011;2301;47.354;8.528;2023-01-20T14:26:19;9.50;;;5.53;;
4577;SDS011;2301;47.354;8.528;2023-01-20T14:28:50;8.70;;;6.00;;
4577;SDS011;2301;47.354;8.528;2023-01-20T14:31:19;9.10;;;6.05;;
4577;SDS011;2301;47.354;8.528;2023-01-20T14:33:56;12.38;;;6.32;;
4577;SDS011;2301;47.354;8.528;2023-01-20T14:36:26;7.90;;;6.30;;
4577;SDS011;2301;47.354;8.528;2023-01-20T14:38:57;12.93;;;6.63;;
4577;SDS011;2301;47.354;8.528;2023-01-20T14:41:28;9.45;;;6.63;;
4577;SDS011;2301;47.354;8.528;2023-01-20T14:43:58;9.25;;;6.30;;
4577;SDS011;2301;47.354;8.528;2023-01-20T14:46:26;7.47;;;5.50;;
4577;SDS011;2301;47.354;8.528;2023-01-20T14:48:54;9.73;;;6.75;;
4577;SDS011;2301;47.354;8.528;2023-01-20T14:51:22;9.68;;;6.25;;
4577;SDS011;2301;47.354;8.528;2023-01-20T14:56:56;9.82;;;6.22;;
4577;SDS011;2301;47.354;8.528;2023-01-20T14:59:24;12.65;;;6.03;;
4577;SDS011;2301;47.354;8.528;2023-01-20T15:01:52;7.60;;;6.07;;
4577;SDS011;2301;47.354;8.528;2023-01-20T15:04:20;7.60;;;6.40;;
4577;SDS011;2301;47.354;8.528;2023-01-20T15:06:51;19.05;;;5.85;;
4577;SDS011;2301;47.354;8.528;2023-01-20T15:09:30;10.20;;;6.90;;
4577;SDS011;2301;47.354;8.528;2023-01-20T15:15:11;8.52;;;6.65;;
4577;SDS011;2301;47.354;8.528;2023-01-20T15:18:03;10.25;;;6.50;;
4577;SDS011;2301;47.354;8.528;2023-01-20T15:20:45;12.10;;;7.80;;
4577;SDS011;2301;47.354;8.528;2023-01-20T15:23:15;10.80;;;6.82;;
4577;SDS011;2301;47.354;8.528;2023-01-20T15:25:47;10.32;;;6.80;;
4577;SDS011;2301;47.354;8.528;2023-01-20T15:28:25;13.27;;;7.20;;
4577;SDS011;2301;47.354;8.528;2023-01-20T15:30:54;11.70;;;7.05;;
4577;SDS011;2301;47.354;8.528;2023-01-20T15:33:22;12.63;;;7.63;;
4577;SDS011;2301;47.354;8.528;2023-01-20T15:35:54;11.32;;;7.15;;
4577;SDS011;2301;47.354;8.528;2023-01-20T15:38:23;10.50;;;7.82;;
4577;SDS011;2301;47.354;8.528;2023-01-20T15:40:50;10.55;;;7.80;;
4577;SDS011;2301;47.354;8.528;2023-01-20T15:43:18;12.57;;;8.50;;
4577;SDS011;2301;47.354;8.528;2023-01-20T15:45:47;13.40;;;7.57;;
4577;SDS011;2301;47.354;8.528;2023-01-20T15:48:15;14.68;;;7.10;;
4577;SDS011;2301;47.354;8.528;2023-01-20T15:50:44;11.15;;;7.57;;
4577;SDS011;2301;47.354;8.528;2023-01-20T15:53:11;14.35;;;7.60;;
4577;SDS011;2301;47.354;8.528;2023-01-20T15:55:40;10.30;;;6.70;;
4577;SDS011;2301;47.354;8.528;2023-01-20T15:58:18;10.90;;;7.68;;
4577;SDS011;2301;47.354;8.528;2023-01-20T16:00:49;9.35;;;7.68;;
4577;SDS011;2301;47.354;8.528;2023-01-20T16:03:16;13.60;;;8.30;;
4577;SDS011;2301;47.354;8.528;2023-01-20T16:05:43;10.70;;;7.80;;
4577;SDS011;2301;47.354;8.528;2023-01-20T16:08:13;13.65;;;7.00;;
4577;SDS011;2301;47.354;8.528;2023-01-20T16:10:41;12.13;;;7.43;;
4577;SDS011;2301;47.354;8.528;2023-01-20T16:13:08;14.18;;;7.20;;
4577;SDS011;2301;47.354;8.528;2023-01-20T16:15:36;8.45;;;6.57;;
4577;SDS011;2301;47.354;8.528;2023-01-20T16:18:08;10.32;;;6.97;;
4577;SDS011;2301;47.354;8.528;2023-01-20T16:20:38;8.90;;;6.55;;
4577;SDS011;2301;47.354;8.528;2023-01-20T16:23:05;11.25;;;6.97;;
4577;SDS011;2301;47.354;8.528;2023-01-20T16:25:33;12.20;;;7.70;;
4577;SDS011;2301;47.354;8.528;2023-01-20T16:28:00;9.55;;;7.25;;
4577;SDS011;2301;47.354;8.528;2023-01-20T16:30:28;13.00;;;7.72;;
4577;SDS011;2301;47.354;8.528;2023-01-20T16:32:55;13.02;;;7.45;;
4577;SDS011;2301;47.354;8.528;2023-01-20T16:35:24;10.88;;;7.32;;
4577;SDS011;2301;47.354;8.528;2023-01-20T16:37:51;14.75;;;7.10;;
4577;SDS011;2301;47.354;8.528;2023-01-20T16:40:18;16.40;;;7.75;;
4577;SDS011;2301;47.354;8.528;2023-01-20T16:42:46;11.70;;;6.80;;
4577;SDS011;2301;47.354;8.528;2023-01-20T16:45:21;10.80;;;7.40;;
4577;SDS011;2301;47.354;8.528;2023-01-20T16:47:51;11.25;;;6.97;;
4577;SDS011;2301;47.354;8.528;2023-01-20T16:50:18;12.57;;;7.78;;
4577;SDS011;2301;47.354;8.528;2023-01-20T16:52:47;14.68;;;7.78;;
4577;SDS011;2301;47.354;8.528;2023-01-20T16:55:15;10.07;;;6.80;;
4577;SDS011;2301;47.354;8.528;2023-01-20T16:57:50;9.57;;;6.88;;
4577;SDS011;2301;47.354;8.528;2023-01-20T17:00:21;13.63;;;7.05;;
4577;SDS011;2301;47.354;8.528;2023-01-20T17:02:56;12.13;;;7.25;;
4577;SDS011;2301;47.354;8.528;2023-01-20T17:05:26;11.68;;;8.02;;
4577;SDS011;2301;47.354;8.528;2023-01-20T17:08:05;14.45;;;7.30;;
4577;SDS011;2301;47.354;8.528;2023-01-20T17:10:46;10.57;;;7.65;;
4577;SDS011;2301;47.354;8.528;2023-01-20T17:13:13;9.55;;;6.82;;
4577;SDS011;2301;47.354;8.528;2023-01-20T17:15:48;14.70;;;7.05;;
4577;SDS011;2301;47.354;8.528;2023-01-20T17:18:30;9.52;;;6.72;;
4577;SDS011;2301;47.354;8.528;2023-01-20T17:21:02;8.05;;;6.40;;
4577;SDS011;2301;47.354;8.528;2023-01-20T17:23:41;9.98;;;7.07;;
4577;SDS011;2301;47.354;8.528;2023-01-20T17:26:24;8.93;;;6.47;;
4577;SDS011;2301;47.354;8.528;2023-01-20T17:29:03;10.23;;;6.82;;
4577;SDS011;2301;47.354;8.528;2023-01-20T17:31:31;10.73;;;7.30;;
4577;SDS011;2301;47.354;8.528;2023-01-20T17:34:00;11.18;;;7.65;;
4577;SDS011;2301;47.354;8.528;2023-01-20T17:36:27;11.18;;;7.00;;
4577;SDS011;2301;47.354;8.528;2023-01-20T17:38:59;11.23;;;8.18;;
4577;SDS011;2301;47.354;8.528;2023-01-20T17:41:27;50.05;;;27.10;;
4577;SDS011;2301;47.354;8.528;2023-01-20T17:43:59;27.17;;;13.18;;
4577;SDS011;2301;47.354;8.528;2023-01-20T17:46:33;26.48;;;12.60;;
4577;SDS011;2301;47.354;8.528;2023-01-20T17:49:28;17.60;;;9.68;;
4577;SDS011;2301;47.354;8.528;2023-01-20T17:56:11;12.75;;;7.22;;
4577;SDS011;2301;47.354;8.528;2023-01-20T17:59:02;15.20;;;8.13;;
4577;SDS011;2301;47.354;8.528;2023-01-20T18:01:31;12.70;;;7.75;;
4577;SDS011;2301;47.354;8.528;2023-01-20T18:04:05;15.52;;;8.35;;
4577;SDS011;2301;47.354;8.528;2023-01-20T18:06:36;22.02;;;8.93;;
4577;SDS011;2301;47.354;8.528;2023-01-20T18:09:04;20.85;;;8.20;;
4577;SDS011;2301;47.354;8.528;2023-01-20T18:11:37;17.85;;;9.70;;
4577;SDS011;2301;47.354;8.528;2023-01-20T18:14:08;11.48;;;7.82;;
4577;SDS011;2301;47.354;8.528;2023-01-20T18:17:02;14.50;;;7.93;;
4577;SDS011;2301;47.354;8.528;2023-01-20T18:23:10;13.95;;;6.90;;
4577;SDS011;2301;47.354;8.528;2023-01-20T18:25:39;16.40;;;7.78;;
4577;SDS011;2301;47.354;8.528;2023-01-20T18:54:58;15.57;;;8.20;;
4577;SDS011;2301;47.354;8.528;2023-01-20T19:00:31;12.93;;;8.43;;
4577;SDS011;2301;47.354;8.528;2023-01-20T19:09:27;12.05;;;8.20;;
4577;SDS011;2301;47.354;8.528;2023-01-20T19:12:02;15.00;;;8.43;;
4577;SDS011;2301;47.354;8.528;2023-01-20T19:14:40;14.88;;;9.18;;
4577;SDS011;2301;47.354;8.528;2023-01-20T19:25:14;13.00;;;7.90;;
4577;SDS011;2301;47.354;8.528;2023-01-20T19:27:42;11.20;;;7.70;;
4577;SDS011;2301;47.354;8.528;2023-01-20T19:30:09;15.00;;;9.02;;
4577;SDS011;2301;47.354;8.528;2023-01-20T19:33:06;10.52;;;7.47;;
4577;SDS011;2301;47.354;8.528;2023-01-20T20:45:44;15.48;;;10.27;;
4577;SDS011;2301;47.354;8.528;2023-01-20T20:48:21;22.77;;;10.95;;
4577;SDS011;2301;47.354;8.528;2023-01-20T20:50:50;15.60;;;9.30;;
4577;SDS011;2301;47.354;8.528;2023-01-20T20:53:31;14.40;;;9.32;;
4577;SDS011;2301;47.354;8.528;2023-01-20T20:56:05;16.38;;;9.88;;
4577;SDS011;2301;47.354;8.528;2023-01-20T21:01:49;15.10;;;8.63;;
4577;SDS011;2301;47.354;8.528;2023-01-20T21:04:22;17.95;;;9.52;;
4577;SDS011;2301;47.354;8.528;2023-01-20T21:06:59;19.30;;;8.75;;
4577;SDS011;2301;47.354;8.528;2023-01-20T21:09:38;19.02;;;8.20;;
4577;SDS011;2301;47.354;8.528;2023-01-20T21:12:07;14.45;;;8.05;;
4577;SDS011;2301;47.354;8.528;2023-01-20T21:17:22;16.73;;;8.40;;
4577;SDS011;2301;47.354;8.528;2023-01-20T21:19:53;11.80;;;8.05;;
4577;SDS011;2301;47.354;8.528;2023-01-20T21:22:20;13.63;;;8.35;;
4577;SDS011;2301;47.354;8.528;2023-01-20T21:24:49;12.30;;;8.70;;
4577;SDS011;2301;47.354;8.528;2023-01-20T21:27:21;15.73;;;9.10;;
4577;SDS011;2301;47.354;8.528;2023-01-20T21:30:02;11.75;;;8.07;;
4577;SDS011;2301;47.354;8.528;2023-01-20T21:32:52;17.02;;;8.63;;
4577;SDS011;2301;47.354;8.528;2023-01-20T21:35:27;10.40;;;7.45;;
4577;SDS011;2301;47.354;8.528;2023-01-20T21:37:56;14.95;;;8.43;;
4577;SDS011;2301;47.354;8.528;2023-01-20T21:40:23;16.17;;;9.02;;
4577;SDS011;2301;47.354;8.528;2023-01-20T21:42:53;13.65;;;9.00;;
4577;SDS011;2301;47.354;8.528;2023-01-20T21:48:59;10.63;;;7.93;;
4577;SDS011;2301;47.354;8.528;2023-01-20T21:51:44;16.77;;;9.32;;
4577;SDS011;2301;47.354;8.528;2023-01-20T21:54:31;14.20;;;9.30;;
4577;SDS011;2301;47.354;8.528;2023-01-20T21:57:00;13.25;;;8.50;;
4577;SDS011;2301;47.354;8.528;2023-01-20T21:59:28;11.70;;;7.50;;
4577;SDS011;2301;47.354;8.528;2023-01-20T22:02:06;13.43;;;8.68;;
4577;SDS011;2301;47.354;8.528;2023-01-20T22:05:01;13.55;;;8.00;;
4577;SDS011;2301;47.354;8.528;2023-01-20T22:07:34;13.85;;;9.02;;
4577;SDS011;2301;47.354;8.528;2023-01-20T22:10:14;15.02;;;8.77;;
4577;SDS011;2301;47.354;8.528;2023-01-20T22:12:43;14.30;;;8.52;;
4577;SDS011;2301;47.354;8.528;2023-01-20T22:15:19;15.80;;;9.40;;
4577;SDS011;2301;47.354;8.528;2023-01-20T22:17:49;16.52;;;8.60;;
4577;SDS011;2301;47.354;8.528;2023-01-20T22:20:20;14.63;;;8.70;;
4577;SDS011;2301;47.354;8.528;2023-01-20T22:22:47;18.30;;;8.88;;
4577;SDS011;2301;47.354;8.528;2023-01-20T22:25:18;18.60;;;9.07;;
4577;SDS011;2301;47.354;8.528;2023-01-20T22:27:46;14.43;;;7.55;;
4577;SDS011;2301;47.354;8.528;2023-01-20T22:32:45;16.25;;;9.38;;
4577;SDS011;2301;47.354;8.528;2023-01-20T22:35:21;14.45;;;9.30;;
4577;SDS011;2301;47.354;8.528;2023-01-20T22:37:49;15.80;;;9.40;;
4577;SDS011;2301;47.354;8.528;2023-01-20T22:40:19;18.30;;;8.32;;
